createdAt,value
2018-08-20T00:00:53.079Z,95680.00
2018-08-20T00:03:23.808Z,95683.00
2018-08-20T00:05:56.120Z,95680.00
2018-08-20T00:08:26.878Z,95683.00
2018-08-20T00:10:59.246Z,95681.00
2018-08-20T00:13:30.012Z,95678.00
2018-08-20T00:16:00.927Z,95677.00
2018-08-20T00:18:32.118Z,95679.00
2018-08-20T00:21:02.958Z,95682.00
2018-08-20T00:23:33.764Z,95683.00
2018-08-20T00:26:04.721Z,95680.00
2018-08-20T00:28:35.546Z,95676.00
2018-08-20T00:31:06.346Z,95672.00
2018-08-20T00:33:37.122Z,95674.00
2018-08-20T00:36:07.926Z,95679.00
2018-08-20T00:38:38.684Z,95673.00
2018-08-20T00:41:09.447Z,95669.00
2018-08-20T00:43:40.186Z,95674.00
2018-08-20T00:46:10.987Z,95675.00
2018-08-20T00:48:41.678Z,95672.00
2018-08-20T00:51:12.419Z,95670.00
2018-08-20T00:53:43.201Z,95671.00
2018-08-20T00:56:13.958Z,95675.00
2018-08-20T00:58:44.639Z,95672.00
2018-08-20T01:01:15.447Z,95675.00
2018-08-20T01:03:46.285Z,95673.00
2018-08-20T01:06:17.386Z,95677.00
2018-08-20T01:08:48.298Z,95677.00
2018-08-20T01:11:19.067Z,95679.00
2018-08-20T01:13:50.281Z,95681.00
2018-08-20T01:16:21.096Z,95675.00
2018-08-20T01:18:52.068Z,95675.00
2018-08-20T01:21:22.859Z,95678.00
2018-08-20T01:23:53.647Z,95675.00
2018-08-20T01:26:24.428Z,95676.00
2018-08-20T01:28:55.213Z,95678.00
2018-08-20T01:31:25.938Z,95678.00
2018-08-20T01:33:56.687Z,95675.00
2018-08-20T01:36:27.402Z,95676.00
2018-08-20T01:38:58.129Z,95674.00
2018-08-20T01:41:28.912Z,95677.00
2018-08-20T01:43:59.646Z,95676.00
2018-08-20T01:46:30.897Z,95674.00
2018-08-20T01:49:02.350Z,95671.00
2018-08-20T01:51:33.286Z,95676.00
2018-08-20T01:54:04.186Z,95674.00
2018-08-20T01:56:34.939Z,95671.00
2018-08-20T01:59:05.699Z,95673.00
2018-08-20T02:01:36.426Z,95677.00
2018-08-20T02:04:07.278Z,95678.00
2018-08-20T02:06:38.079Z,95679.00
2018-08-20T02:09:10.428Z,95681.00
2018-08-20T02:11:41.178Z,95683.00
2018-08-20T02:14:11.926Z,95681.00
2018-08-20T02:16:43.005Z,95682.00
2018-08-20T02:19:13.686Z,95682.00
2018-08-20T02:21:44.466Z,95680.00
2018-08-20T02:24:15.258Z,95680.00
2018-08-20T02:26:46.029Z,95682.00
2018-08-20T02:29:17.046Z,95680.00
2018-08-20T02:31:47.866Z,95679.00
2018-08-20T02:34:18.707Z,95682.00
2018-08-20T02:36:49.430Z,95687.00
2018-08-20T02:39:20.283Z,95687.00
2018-08-20T02:41:51.374Z,95688.00
2018-08-20T02:44:22.175Z,95681.00
2018-08-20T02:46:55.088Z,95687.00
2018-08-20T02:49:25.907Z,95679.00
2018-08-20T02:51:56.654Z,95679.00
2018-08-20T02:54:27.486Z,95682.00
2018-08-20T02:56:58.238Z,95681.00
2018-08-20T02:59:29.000Z,95685.00
2018-08-20T03:01:59.919Z,95684.00
2018-08-20T03:04:30.669Z,95688.00
2018-08-20T03:07:01.407Z,95686.00
2018-08-20T03:09:32.165Z,95687.00
2018-08-20T03:12:02.844Z,95685.00
2018-08-20T03:14:33.600Z,95679.00
2018-08-20T03:17:04.418Z,95679.00
2018-08-20T03:19:35.234Z,95674.00
2018-08-20T03:22:06.331Z,95672.00
2018-08-20T03:24:37.175Z,95675.00
2018-08-20T03:27:07.992Z,95674.00
2018-08-20T03:29:38.775Z,95677.00
2018-08-20T03:32:09.512Z,95677.00
2018-08-20T03:34:40.264Z,95681.00
2018-08-20T03:37:11.194Z,95677.00
2018-08-20T03:39:42.002Z,95679.00
2018-08-20T03:42:12.766Z,95683.00
2018-08-20T03:44:43.729Z,95684.00
2018-08-20T03:47:14.457Z,95685.00
2018-08-20T03:49:45.248Z,95684.00
2018-08-20T03:52:16.055Z,95687.00
2018-08-20T03:54:46.918Z,95682.00
2018-08-20T03:57:17.664Z,95683.00
2018-08-20T03:59:48.406Z,95683.00
2018-08-20T04:02:19.187Z,95688.00
2018-08-20T04:04:49.961Z,95690.00
2018-08-20T04:07:20.722Z,95687.00
2018-08-20T04:09:51.434Z,95687.00
2018-08-20T04:12:22.135Z,95691.00
2018-08-20T04:14:52.908Z,95687.00
2018-08-20T04:17:23.632Z,95687.00
2018-08-20T04:19:55.015Z,95688.00
2018-08-20T04:22:25.767Z,95687.00
2018-08-20T04:24:56.526Z,95691.00
2018-08-20T04:27:27.275Z,95692.00
2018-08-20T04:29:58.375Z,95692.00
2018-08-20T04:32:29.155Z,95696.00
2018-08-20T04:35:00.107Z,95693.00
2018-08-20T04:37:30.835Z,95693.00
2018-08-20T04:40:01.803Z,95699.00
2018-08-20T04:42:32.543Z,95694.00
2018-08-20T04:45:03.335Z,95701.00
2018-08-20T04:47:34.107Z,95701.00
2018-08-20T04:50:05.692Z,95697.00
2018-08-20T04:52:36.237Z,95701.00
2018-08-20T04:55:07.023Z,95707.00
2018-08-20T04:57:37.719Z,95712.00
2018-08-20T05:00:11.001Z,95706.00
2018-08-20T05:02:41.807Z,95711.00
2018-08-20T05:05:12.707Z,95713.00
2018-08-20T05:07:43.567Z,95717.00
2018-08-20T05:10:14.255Z,95715.00
2018-08-20T05:12:45.023Z,95720.00
2018-08-20T05:15:15.755Z,95719.00
2018-08-20T05:17:46.487Z,95716.00
2018-08-20T05:20:17.294Z,95716.00
2018-08-20T05:22:48.046Z,95708.00
2018-08-20T05:25:18.905Z,95714.00
2018-08-20T05:27:49.607Z,95707.00
2018-08-20T05:30:20.358Z,95715.00
2018-08-20T05:32:51.093Z,95711.00
2018-08-20T05:35:21.825Z,95713.00
2018-08-20T05:37:52.554Z,95711.00
2018-08-20T05:40:23.307Z,95712.00
2018-08-20T05:42:54.194Z,95716.00
2018-08-20T05:45:24.975Z,95719.00
2018-08-20T05:47:55.664Z,95724.00
2018-08-20T05:50:26.475Z,95723.00
2018-08-20T05:52:57.214Z,95725.00
2018-08-20T05:55:28.046Z,95724.00
2018-08-20T05:57:58.734Z,95727.00
2018-08-20T06:00:29.556Z,95731.00
2018-08-20T06:03:00.274Z,95739.00
2018-08-20T06:05:31.066Z,95740.00
2018-08-20T06:08:01.828Z,95742.00
2018-08-20T06:10:32.734Z,95741.00
2018-08-20T06:13:03.547Z,95740.00
2018-08-20T06:15:34.415Z,95736.00
2018-08-20T06:18:05.368Z,95738.00
2018-08-20T06:20:36.255Z,95736.00
2018-08-20T06:23:07.687Z,95731.00
2018-08-20T06:25:38.617Z,95731.00
2018-08-20T06:28:09.595Z,95730.00
2018-08-20T06:30:40.447Z,95726.00
2018-08-20T06:33:11.235Z,95728.00
2018-08-20T06:35:42.051Z,95726.00
2018-08-20T06:38:12.876Z,95732.00
2018-08-20T06:40:43.695Z,95737.00
2018-08-20T06:43:14.435Z,95728.00
2018-08-20T06:45:45.227Z,95731.00
2018-08-20T06:48:15.963Z,95729.00
2018-08-20T06:50:46.690Z,95726.00
2018-08-20T06:53:17.371Z,95727.00
2018-08-20T06:55:48.238Z,95729.00
2018-08-20T06:58:19.067Z,95727.00
2018-08-20T07:00:49.940Z,95724.00
2018-08-20T07:03:20.727Z,95729.00
2018-08-20T07:05:51.424Z,95726.00
2018-08-20T07:08:22.158Z,95721.00
2018-08-20T07:10:52.913Z,95721.00
2018-08-20T07:13:34.566Z,95722.00
2018-08-20T07:16:06.807Z,95718.00
2018-08-20T07:18:37.689Z,95717.00
2018-08-20T07:21:08.667Z,95711.00
2018-08-20T07:23:39.704Z,95716.00
2018-08-20T07:26:10.436Z,95715.00
2018-08-20T07:28:41.167Z,95715.00
2018-08-20T07:31:11.975Z,95711.00
2018-08-20T07:33:42.805Z,95715.00
2018-08-20T07:36:13.644Z,95714.00
2018-08-20T07:38:44.350Z,95713.00
2018-08-20T07:41:15.190Z,95709.00
2018-08-20T07:43:45.956Z,95706.00
2018-08-20T07:46:16.718Z,95701.00
2018-08-20T07:48:47.461Z,95699.00
2018-08-20T07:51:18.255Z,95700.00
2018-08-20T07:53:48.975Z,95697.00
2018-08-20T07:56:19.732Z,95697.00
2018-08-20T07:58:50.487Z,95694.00
2018-08-20T08:01:21.355Z,95693.00
2018-08-20T08:03:52.148Z,95693.00
2018-08-20T08:06:22.975Z,95690.00
2018-08-20T08:08:53.840Z,95693.00
2018-08-20T08:11:24.734Z,95690.00
2018-08-20T08:13:55.475Z,95683.00
2018-08-20T08:16:26.255Z,95686.00
2018-08-20T08:18:57.086Z,95682.00
2018-08-20T08:21:27.894Z,95678.00
2018-08-20T08:23:58.703Z,95677.00
2018-08-20T08:26:29.551Z,95681.00
2018-08-20T08:29:00.295Z,95674.00
2018-08-20T08:31:31.407Z,95678.00
2018-08-20T08:34:02.206Z,95674.00
2018-08-20T08:36:33.052Z,95674.00
2018-08-20T08:39:04.853Z,95670.00
2018-08-20T08:41:35.876Z,95672.00
2018-08-20T08:44:09.445Z,95667.00
2018-08-20T08:46:40.332Z,95661.00
2018-08-20T08:49:11.014Z,95657.00
2018-08-20T08:51:41.768Z,95659.00
2018-08-20T08:54:12.535Z,95656.00
2018-08-20T08:56:43.336Z,95657.00
2018-08-20T08:59:14.303Z,95649.00
2018-08-20T09:01:45.174Z,95645.00
2018-08-20T09:04:15.884Z,95646.00
2018-08-20T09:06:46.755Z,95644.00
2018-08-20T09:09:17.584Z,95644.00
2018-08-20T09:11:48.392Z,95647.00
2018-08-20T09:14:19.147Z,95640.00
2018-08-20T09:16:50.873Z,95639.00
2018-08-20T09:19:21.608Z,95627.00
2018-08-20T09:21:52.386Z,95628.00
2018-08-20T09:24:23.258Z,95627.00
2018-08-20T09:26:54.567Z,95619.00
2018-08-20T09:29:25.659Z,95612.00
2018-08-20T09:31:56.475Z,95610.00
2018-08-20T09:34:27.236Z,95605.00
2018-08-20T09:36:58.043Z,95604.00
2018-08-20T09:39:28.905Z,95607.00
2018-08-20T09:41:59.683Z,95597.00
2018-08-20T09:44:30.582Z,95593.00
2018-08-20T09:47:01.328Z,95594.00
2018-08-20T09:49:32.080Z,95586.00
2018-08-20T09:52:03.259Z,95583.00
2018-08-20T09:54:34.113Z,95581.00
2018-08-20T09:57:04.979Z,95574.00
2018-08-20T09:59:36.228Z,95577.00
2018-08-20T10:02:07.109Z,95572.00
2018-08-20T10:04:37.904Z,95568.00
2018-08-20T10:07:08.867Z,95568.00
2018-08-20T10:09:39.698Z,95563.00
2018-08-20T10:12:10.551Z,95563.00
2018-08-20T10:14:41.526Z,95556.00
2018-08-20T10:17:12.439Z,95557.00
2018-08-20T10:19:43.254Z,95553.00
2018-08-20T10:22:14.068Z,95548.00
2018-08-20T10:24:44.928Z,95542.00
2018-08-20T10:27:15.609Z,95548.00
2018-08-20T10:29:46.355Z,95541.00
2018-08-20T10:32:17.287Z,95540.00
2018-08-20T10:34:48.042Z,95535.00
2018-08-20T10:37:18.805Z,95540.00
2018-08-20T10:39:49.686Z,95537.00
2018-08-20T10:42:20.499Z,95535.00
2018-08-20T10:44:53.183Z,95533.00
2018-08-20T10:47:24.045Z,95538.00
2018-08-20T10:49:54.808Z,95536.00
2018-08-20T10:52:25.910Z,95536.00
2018-08-20T10:54:57.054Z,95533.00
2018-08-20T10:57:27.837Z,95529.00
2018-08-20T10:59:58.607Z,95527.00
2018-08-20T11:02:29.480Z,95522.00
2018-08-20T11:05:00.238Z,95519.00
2018-08-20T11:07:31.107Z,95514.00
2018-08-20T11:10:01.920Z,95511.00
2018-08-20T11:12:34.848Z,95510.00
2018-08-20T11:15:06.954Z,95505.00
2018-08-20T11:17:38.450Z,95502.00
2018-08-20T11:20:14.549Z,95498.00
2018-08-20T11:22:45.496Z,95494.00
2018-08-20T11:25:16.255Z,95494.00
2018-08-20T11:27:47.802Z,95486.00
2018-08-20T11:30:18.618Z,95485.00
2018-08-20T11:32:49.485Z,95481.00
2018-08-20T11:35:20.254Z,95476.00
2018-08-20T11:37:51.007Z,95471.00
2018-08-20T11:40:21.715Z,95472.00
2018-08-20T11:42:52.477Z,95470.00
2018-08-20T11:45:23.214Z,95465.00
2018-08-20T11:47:54.016Z,95467.00
2018-08-20T11:50:24.739Z,95463.00
2018-08-20T11:52:55.575Z,95460.00
2018-08-20T11:55:26.347Z,95464.00
2018-08-20T11:57:57.174Z,95457.00
2018-08-20T12:00:28.047Z,95452.00
2018-08-20T12:02:58.935Z,95451.00
2018-08-20T12:05:29.975Z,95452.00
2018-08-20T12:08:00.715Z,95447.00
2018-08-20T12:10:31.476Z,95444.00
2018-08-20T12:13:02.255Z,95442.00
2018-08-20T12:15:33.048Z,95443.00
2018-08-20T12:18:03.800Z,95436.00
2018-08-20T12:20:34.627Z,95432.00
2018-08-20T12:23:05.470Z,95429.00
2018-08-20T12:25:36.268Z,95430.00
2018-08-20T12:28:07.161Z,95432.00
2018-08-20T12:30:38.023Z,95425.00
2018-08-20T12:33:09.076Z,95424.00
2018-08-20T12:35:39.840Z,95425.00
2018-08-20T12:38:10.672Z,95415.00
2018-08-20T12:40:41.475Z,95417.00
2018-08-20T12:43:12.266Z,95417.00
2018-08-20T12:45:43.055Z,95414.00
2018-08-20T12:48:13.834Z,95417.00
2018-08-20T12:50:44.677Z,95416.00
2018-08-20T12:53:15.474Z,95405.00
2018-08-20T12:55:46.288Z,95399.00
2018-08-20T12:58:17.106Z,95406.00
2018-08-20T13:00:47.902Z,95405.00
2018-08-20T13:03:18.745Z,95409.00
2018-08-20T13:05:49.767Z,95409.00
2018-08-20T13:08:20.594Z,95406.00
2018-08-20T13:10:51.434Z,95412.00
2018-08-20T13:13:22.240Z,95404.00
2018-08-20T13:15:53.130Z,95395.00
2018-08-20T13:18:23.949Z,95405.00
2018-08-20T13:20:54.726Z,95408.00
2018-08-20T13:23:25.536Z,95411.00
2018-08-20T13:25:56.295Z,95406.00
2018-08-20T13:28:27.199Z,95407.00
2018-08-20T13:30:58.015Z,95410.00
2018-08-20T13:33:28.765Z,95400.00
2018-08-20T13:35:59.924Z,95404.00
2018-08-20T13:38:30.727Z,95404.00
2018-08-20T13:41:01.547Z,95407.00
2018-08-20T13:43:32.315Z,95412.00
2018-08-20T13:46:03.211Z,95408.00
2018-08-20T13:48:34.158Z,95400.00
2018-08-20T13:51:04.904Z,95401.00
2018-08-20T13:53:35.648Z,95405.00
2018-08-20T13:56:06.367Z,95400.00
2018-08-20T13:58:37.228Z,95406.00
2018-08-20T14:01:08.087Z,95410.00
2018-08-20T14:03:38.878Z,95409.00
2018-08-20T14:06:09.715Z,95409.00
2018-08-20T14:08:40.572Z,95408.00
2018-08-20T14:11:11.388Z,95404.00
2018-08-20T14:13:42.235Z,95398.00
2018-08-20T14:16:13.008Z,95399.00
2018-08-20T14:18:43.815Z,95398.00
2018-08-20T14:21:16.615Z,95396.00
2018-08-20T14:23:50.876Z,95401.00
2018-08-20T14:26:21.614Z,95409.00
2018-08-20T14:28:52.545Z,95412.00
2018-08-20T14:31:23.275Z,95410.00
2018-08-20T14:33:54.144Z,95423.00
2018-08-20T14:36:24.970Z,95432.00
2018-08-20T14:38:55.749Z,95436.00
2018-08-20T14:41:26.474Z,95438.00
2018-08-20T14:43:57.336Z,95471.00
2018-08-20T14:46:28.110Z,95479.00
2018-08-20T14:48:58.965Z,95472.00
2018-08-20T14:51:29.904Z,95467.00
2018-08-20T14:54:00.669Z,95462.00
2018-08-20T14:56:31.440Z,95444.00
2018-08-20T14:59:02.716Z,95443.00
2018-08-20T15:01:33.548Z,95449.00
2018-08-20T15:04:04.482Z,95444.00
2018-08-20T15:06:40.660Z,95432.00
2018-08-20T15:09:11.548Z,95434.00
2018-08-20T15:11:42.387Z,95429.00
2018-08-20T15:14:14.168Z,95425.00
2018-08-20T15:16:44.939Z,95410.00
2018-08-20T15:19:15.962Z,95408.00
2018-08-20T15:21:47.378Z,95411.00
2018-08-20T15:24:19.283Z,95411.00
2018-08-20T15:26:50.785Z,95406.00
2018-08-20T15:29:21.706Z,95411.00
2018-08-20T15:31:52.562Z,95411.00
2018-08-20T15:34:23.350Z,95409.00
2018-08-20T15:36:54.176Z,95418.00
2018-08-20T15:39:25.145Z,95419.00
2018-08-20T15:41:56.007Z,95418.00
2018-08-20T15:44:26.971Z,95423.00
2018-08-20T15:46:57.806Z,95417.00
2018-08-20T15:49:28.728Z,95423.00
2018-08-20T15:51:59.546Z,95427.00
2018-08-20T15:54:30.390Z,95426.00
2018-08-20T15:57:01.838Z,95427.00
2018-08-20T15:59:32.590Z,95422.00
2018-08-20T16:02:04.010Z,95424.00
2018-08-20T16:04:34.794Z,95427.00
2018-08-20T16:07:05.772Z,95424.00
2018-08-20T16:09:36.671Z,95415.00
2018-08-20T16:12:07.512Z,95416.00
2018-08-20T16:14:39.000Z,95419.00
2018-08-20T16:17:09.850Z,95425.00
2018-08-20T16:19:40.628Z,95414.00
2018-08-20T16:22:11.438Z,95416.00
2018-08-20T16:24:42.247Z,95406.00
2018-08-20T16:27:13.331Z,95402.00
2018-08-20T16:29:44.302Z,95399.00
2018-08-20T16:32:15.257Z,95401.00
2018-08-20T16:34:46.704Z,95402.00
2018-08-20T16:37:17.509Z,95403.00
2018-08-20T16:39:48.435Z,95408.00
2018-08-20T16:42:19.359Z,95407.00
2018-08-20T16:44:50.875Z,95406.00
2018-08-20T16:47:21.747Z,95404.00
2018-08-20T16:49:52.652Z,95402.00
2018-08-20T16:52:23.515Z,95400.00
2018-08-20T16:54:55.443Z,95407.00
2018-08-20T16:57:26.208Z,95408.00
2018-08-20T16:59:56.939Z,95409.00
2018-08-20T17:02:28.808Z,95403.00
2018-08-20T17:04:59.708Z,95405.00
2018-08-20T17:07:31.080Z,95404.00
2018-08-20T17:10:01.804Z,95404.00
2018-08-20T17:12:32.575Z,95406.00
2018-08-20T17:15:03.494Z,95409.00
2018-08-20T17:17:34.306Z,95411.00
2018-08-20T17:20:05.608Z,95409.00
2018-08-20T17:22:36.375Z,95415.00
2018-08-20T17:25:08.274Z,95421.00
2018-08-20T17:27:39.075Z,95424.00
2018-08-20T17:30:10.645Z,95425.00
2018-08-20T17:32:41.354Z,95425.00
2018-08-20T17:35:12.832Z,95433.00
2018-08-20T17:37:43.715Z,95428.00
2018-08-20T17:40:14.915Z,95438.00
2018-08-20T17:42:45.761Z,95436.00
2018-08-20T17:45:16.599Z,95438.00
2018-08-20T17:47:47.458Z,95436.00
2018-08-20T17:50:39.775Z,95433.00
2018-08-20T17:53:10.568Z,95430.00
2018-08-20T17:55:41.435Z,95430.00
2018-08-20T17:58:12.770Z,95436.00
2018-08-20T18:00:48.714Z,95441.00
2018-08-20T18:03:25.217Z,95445.00
2018-08-20T18:06:00.807Z,95449.00
2018-08-20T18:08:33.247Z,95448.00
2018-08-20T18:11:04.850Z,95451.00
2018-08-20T18:13:48.098Z,95449.00
2018-08-20T18:16:20.515Z,95458.00
2018-08-20T18:18:53.151Z,95459.00
2018-08-20T18:21:24.031Z,95464.00
2018-08-20T18:23:54.759Z,95458.00
2018-08-20T18:26:30.238Z,95469.00
2018-08-20T18:29:01.060Z,95465.00
2018-08-20T18:31:32.862Z,95471.00
2018-08-20T18:34:03.622Z,95477.00
2018-08-20T18:36:35.508Z,95486.00
2018-08-20T18:39:14.914Z,95482.00
2018-08-20T18:42:04.662Z,95488.00
2018-08-20T18:44:35.645Z,95487.00
2018-08-20T18:47:07.898Z,95490.00
2018-08-20T18:49:50.377Z,95490.00
2018-08-20T18:52:22.699Z,95496.00
2018-08-20T18:54:55.637Z,95495.00
2018-08-20T18:57:31.197Z,95501.00
2018-08-20T19:00:05.384Z,95505.00
2018-08-20T19:02:48.354Z,95510.00
2018-08-20T19:05:20.462Z,95511.00
2018-08-20T19:07:52.288Z,95516.00
2018-08-20T19:10:28.827Z,95523.00
2018-08-20T19:13:00.744Z,95529.00
2018-08-20T19:15:43.847Z,95525.00
2018-08-20T19:18:31.672Z,95530.00
2018-08-20T19:21:02.978Z,95531.00
2018-08-20T19:23:34.735Z,95531.00
2018-08-20T19:26:06.570Z,95529.00
2018-08-20T19:28:38.697Z,95534.00
2018-08-20T19:31:09.575Z,95532.00
2018-08-20T19:33:41.054Z,95536.00
2018-08-20T19:36:12.612Z,95536.00
2018-08-20T19:38:43.419Z,95541.00
2018-08-20T19:41:15.246Z,95547.00
2018-08-20T19:43:47.935Z,95551.00
2018-08-20T19:46:28.367Z,95553.00
2018-08-20T19:49:04.986Z,95557.00
2018-08-20T19:51:38.042Z,95564.00
2018-08-20T19:54:12.323Z,95564.00
2018-08-20T19:56:43.143Z,95567.00
2018-08-20T19:59:14.631Z,95570.00
2018-08-20T20:01:45.779Z,95571.00
2018-08-20T20:04:17.497Z,95569.00
2018-08-20T20:06:48.284Z,95573.00
2018-08-20T20:09:20.719Z,95574.00
2018-08-20T20:11:52.246Z,95577.00
2018-08-20T20:14:23.124Z,95580.00
2018-08-20T20:16:55.214Z,95578.00
2018-08-20T20:19:26.509Z,95578.00
2018-08-20T20:21:57.301Z,95577.00
2018-08-20T20:24:28.172Z,95576.00
2018-08-20T20:26:58.935Z,95582.00
2018-08-20T20:29:29.952Z,95579.00
2018-08-20T20:32:00.776Z,95583.00
2018-08-20T20:34:31.988Z,95586.00
2018-08-20T20:37:02.863Z,95590.00
2018-08-20T20:39:34.213Z,95591.00
2018-08-20T20:42:05.027Z,95592.00
2018-08-20T20:44:35.853Z,95591.00
2018-08-20T20:47:06.677Z,95590.00
2018-08-20T20:49:37.521Z,95594.00
2018-08-20T20:52:08.932Z,95593.00
2018-08-20T20:54:40.376Z,95595.00
2018-08-20T20:57:11.809Z,95600.00
2018-08-20T20:59:42.724Z,95604.00
2018-08-20T21:02:13.452Z,95603.00
2018-08-20T21:04:44.215Z,95604.00
2018-08-20T21:07:20.926Z,95602.00
2018-08-20T21:09:51.866Z,95600.00
2018-08-20T21:12:23.036Z,95600.00
2018-08-20T21:14:54.726Z,95604.00
2018-08-20T21:17:26.412Z,95610.00
2018-08-20T21:19:57.235Z,95617.00
2018-08-20T21:22:28.154Z,95619.00
2018-08-20T21:24:59.048Z,95618.00
2018-08-20T21:27:29.827Z,95622.00
2018-08-20T21:30:04.036Z,95626.00
2018-08-20T21:32:35.112Z,95627.00
2018-08-20T21:35:05.957Z,95622.00
2018-08-20T21:37:36.682Z,95622.00
2018-08-20T21:40:07.492Z,95615.00
2018-08-20T21:42:41.906Z,95615.00
2018-08-20T21:45:13.606Z,95619.00
2018-08-20T21:47:44.386Z,95625.00
2018-08-20T21:50:15.415Z,95624.00
2018-08-20T21:52:47.930Z,95629.00
2018-08-20T21:55:18.738Z,95620.00
2018-08-20T21:57:53.874Z,95619.00
2018-08-20T22:00:24.826Z,95625.00
2018-08-20T22:02:59.335Z,95627.00
2018-08-20T22:05:31.146Z,95621.00
2018-08-20T22:08:01.954Z,95624.00
2018-08-20T22:10:32.729Z,95621.00
2018-08-20T22:13:03.614Z,95615.00
2018-08-20T22:15:34.586Z,95620.00
2018-08-20T22:18:05.355Z,95618.00
2018-08-20T22:20:36.301Z,95618.00
2018-08-20T22:23:24.949Z,95621.00
2018-08-20T22:25:39.871Z,95616.00
2018-08-20T22:28:10.787Z,95619.00
2018-08-20T22:30:45.555Z,95618.00
2018-08-20T22:33:16.307Z,95618.00
2018-08-20T22:35:47.090Z,95620.00
2018-08-20T22:38:17.855Z,95621.00
2018-08-20T22:40:50.139Z,95625.00
2018-08-20T22:43:20.915Z,95631.00
2018-08-20T22:45:51.654Z,95633.00
2018-08-20T22:48:22.414Z,95634.00
2018-08-20T22:51:17.292Z,95631.00
2018-08-20T22:53:50.446Z,95635.00
2018-08-20T22:56:25.672Z,95632.00
2018-08-20T22:59:09.347Z,95636.00
2018-08-20T23:01:40.316Z,95642.00
2018-08-20T23:04:11.095Z,95636.00
2018-08-20T23:06:41.866Z,95632.00
2018-08-20T23:09:30.606Z,95636.00
2018-08-20T23:12:02.195Z,95636.00
2018-08-20T23:14:35.103Z,95639.00
2018-08-20T23:17:05.895Z,95634.00
2018-08-20T23:19:36.674Z,95636.00
2018-08-20T23:22:07.544Z,95641.00
2018-08-20T23:24:43.893Z,95643.00
2018-08-20T23:27:14.635Z,95642.00
2018-08-20T23:29:45.284Z,95642.00
2018-08-20T23:32:16.307Z,95642.00
2018-08-20T23:34:47.074Z,95648.00
2018-08-20T23:37:17.819Z,95646.00
2018-08-20T23:39:48.547Z,95644.00
2018-08-20T23:42:19.385Z,95645.00
2018-08-20T23:44:50.378Z,95653.00
2018-08-20T23:47:21.118Z,95646.00
2018-08-20T23:49:51.886Z,95651.00
2018-08-20T23:52:22.689Z,95651.00
2018-08-20T23:54:53.384Z,95651.00
2018-08-20T23:57:24.235Z,95657.00
2018-08-20T23:59:54.995Z,95654.00
